createdAt,value
2022-10-30T00:09:18.518Z,17.19
2022-10-30T00:19:19.972Z,17.08
2022-10-30T00:29:24.998Z,17.05
2022-10-30T00:39:26.453Z,16.89
2022-10-30T00:49:27.933Z,16.84
2022-10-30T00:59:33.381Z,16.81
2022-10-30T01:09:35.538Z,16.74
2022-10-30T01:20:15.580Z,16.80
2022-10-30T01:30:50.872Z,16.87
2022-10-30T01:40:56.071Z,16.88
2022-10-30T01:51:12.556Z,16.93
2022-10-30T02:01:15.528Z,16.70
2022-10-30T02:11:18.206Z,16.56
2022-10-30T02:21:20.137Z,16.30
2022-10-30T02:31:21.616Z,16.13
2022-10-30T02:41:23.546Z,15.95
2022-10-30T02:51:25.232Z,15.72
2022-10-30T03:01:27.250Z,15.58
2022-10-30T03:11:33.979Z,15.48
2022-10-30T03:21:35.497Z,15.31
2022-10-30T03:31:37.043Z,15.18
2022-10-30T03:42:07.985Z,15.08
2022-10-30T03:52:09.768Z,14.85
2022-10-30T04:02:11.682Z,14.77
2022-10-30T04:12:15.594Z,14.85
2022-10-30T04:22:17.188Z,14.65
2022-10-30T04:32:19.374Z,14.43
2022-10-30T04:42:21.295Z,14.38
2022-10-30T04:52:22.959Z,14.18
2022-10-30T05:02:25.897Z,13.92
2022-10-30T05:12:28.317Z,13.78
2022-10-30T05:22:31.468Z,13.76
2022-10-30T05:32:33.933Z,13.84
2022-10-30T05:42:35.698Z,13.83
2022-10-30T05:52:39.379Z,13.89
2022-10-30T06:02:43.363Z,13.89
2022-10-30T06:12:56.403Z,14.32
2022-10-30T06:23:08.378Z,14.87
2022-10-30T06:33:35.853Z,15.50
2022-10-30T06:43:37.504Z,15.71
2022-10-30T06:53:44.173Z,15.97
2022-10-30T07:04:08.925Z,16.40
2022-10-30T07:14:10.506Z,16.89
2022-10-30T07:24:19.730Z,17.55
2022-10-30T07:34:46.624Z,18.20
2022-10-30T07:55:48.715Z,19.65
2022-10-30T08:06:13.130Z,20.75
2022-10-30T08:16:14.986Z,22.05
2022-10-30T08:26:17.909Z,25.09
2022-10-30T08:36:19.514Z,28.55
2022-10-30T08:46:21.272Z,32.45
2022-10-30T08:56:22.836Z,34.65
2022-10-30T09:06:36.421Z,37.79
2022-10-30T09:17:02.344Z,38.55
2022-10-30T09:27:05.816Z,38.73
2022-10-30T09:37:19.144Z,37.67
2022-10-30T09:47:24.548Z,37.62
2022-10-30T09:57:38.419Z,38.32
2022-10-30T10:07:51.256Z,37.74
2022-10-30T10:18:20.812Z,35.23
2022-10-30T10:28:25.288Z,33.39
2022-10-30T10:38:32.993Z,34.82
2022-10-30T10:49:02.448Z,36.12
2022-10-30T10:59:13.673Z,35.66
2022-10-30T11:09:20.104Z,34.02
2022-10-30T11:19:21.664Z,29.23
2022-10-30T11:29:27.788Z,26.86
2022-10-30T11:39:35.693Z,26.02
2022-10-30T11:50:02.455Z,25.79
2022-10-30T12:00:14.352Z,25.85
2022-10-30T12:10:27.792Z,25.85
2022-10-30T12:20:29.844Z,26.12
2022-10-30T12:30:37.890Z,26.50
2022-10-30T12:40:45.165Z,26.66
2022-10-30T12:51:06.855Z,26.98
2022-10-30T13:01:46.508Z,27.32
2022-10-30T13:12:15.304Z,27.33
2022-10-30T13:22:22.517Z,27.34
2022-10-30T13:32:32.215Z,27.09
2022-10-30T13:42:48.914Z,26.78
2022-10-30T13:52:54.955Z,26.40
2022-10-30T14:03:12.534Z,26.08
2022-10-30T14:13:20.572Z,25.44
2022-10-30T14:23:25.045Z,25.04
2022-10-30T14:33:53.910Z,24.73
2022-10-30T14:44:04.608Z,24.43
2022-10-30T14:54:32.388Z,24.04
2022-10-30T15:05:12.771Z,23.72
2022-10-30T15:15:18.521Z,23.32
2022-10-30T15:25:22.922Z,23.11
2022-10-30T15:35:27.285Z,22.81
2022-10-30T15:45:33.861Z,22.49
2022-10-30T15:55:35.697Z,22.05
2022-10-30T16:05:37.332Z,21.60
2022-10-30T16:15:39.892Z,21.25
2022-10-30T16:25:46.753Z,20.92
2022-10-30T16:35:55.525Z,20.69
2022-10-30T16:46:12.665Z,20.44
2022-10-30T16:56:32.454Z,20.17
2022-10-30T17:06:41.256Z,19.95
2022-10-30T17:16:52.822Z,19.71
2022-10-30T17:26:57.251Z,19.48
2022-10-30T17:36:59.851Z,19.27
2022-10-30T17:47:13.927Z,19.05
2022-10-30T17:57:16.218Z,18.80
2022-10-30T18:07:17.798Z,18.60
2022-10-30T18:17:19.348Z,18.37
2022-10-30T18:27:21.052Z,18.18
2022-10-30T18:37:22.642Z,18.00
2022-10-30T18:47:24.242Z,17.79
2022-10-30T18:57:25.697Z,17.66
2022-10-30T19:07:27.171Z,17.51
2022-10-30T19:17:31.057Z,17.39
2022-10-30T19:27:32.513Z,17.26
2022-10-30T19:37:34.427Z,17.11
2022-10-30T19:47:36.556Z,16.98
2022-10-30T19:57:38.014Z,16.86
2022-10-30T20:07:39.842Z,16.76
2022-10-30T20:17:41.648Z,16.65
2022-10-30T20:27:44.973Z,16.56
2022-10-30T20:37:58.981Z,16.47
2022-10-30T20:48:00.865Z,16.37
2022-10-30T20:58:02.907Z,16.25
2022-10-30T21:08:04.774Z,16.15
2022-10-30T21:18:06.642Z,15.97
2022-10-30T21:28:08.079Z,15.87
2022-10-30T21:38:09.762Z,15.77
2022-10-30T21:48:11.197Z,15.67
2022-10-30T21:58:13.767Z,15.62
2022-10-30T22:08:17.672Z,15.52
2022-10-30T22:18:20.551Z,15.48
2022-10-30T22:28:22.439Z,15.33
2022-10-30T22:38:23.865Z,15.15
2022-10-30T22:48:25.445Z,15.06
2022-10-30T22:58:30.455Z,14.95
2022-10-30T23:08:32.046Z,14.89
2022-10-30T23:18:34.553Z,14.73
2022-10-30T23:28:36.260Z,14.67
2022-10-30T23:38:37.697Z,14.64
2022-10-30T23:48:39.365Z,14.58
2022-10-30T23:58:48.756Z,14.42
